Time;durP1;ratioP1;P1;durP2;ratioP2;P2;SDS_P1;SDS_P2;PMS_P1;PMS_P2;Temp;Humidity;BMP_temperature;BMP_pressure;BME280_temperature;BME280_humidity;BME280_pressure;Samples;Min_cycle;Max_cycle;Signal;HPM_P1;HPM_P2
2021/06/07 00:00:22;;;;;;;7.36;6.49;;;;;;;15.88;78.74;99882.66;1996477;78;22783;-79
2021/06/07 00:03:24;;;;;;;10.30;6.76;;;;;;;15.87;79.26;99880.06;1996124;81;20625;-79
2021/06/07 00:06:27;;;;;;;10.38;7.53;;;;;;;15.89;79.59;99878.28;1998116;81;20182;-80
2021/06/07 00:09:30;;;;;;;11.25;8.54;;;;;;;15.90;79.34;99866.91;1996144;81;20178;-79
2021/06/07 00:12:32;;;;;;;8.71;7.81;;;;;;;15.92;79.04;99875.59;1995778;81;20244;-79
2021/06/07 00:15:36;;;;;;;10.23;8.96;;;;;;;15.92;78.73;99876.47;1994478;79;23165;-78
2021/06/07 00:18:41;;;;;;;9.55;7.82;;;;;;;15.93;79.08;99872.09;1995604;81;21044;-79
2021/06/07 00:21:45;;;;;;;8.40;6.53;;;;;;;15.93;78.84;99874.72;1995554;81;20625;-78
2021/06/07 00:24:47;;;;;;;11.56;9.39;;;;;;;15.88;79.21;99866.06;1994261;81;20210;-79
2021/06/07 00:27:50;;;;;;;8.82;7.45;;;;;;;15.91;78.87;99879.13;1998045;81;20206;-78
2021/06/07 00:30:53;;;;;;;10.81;8.90;;;;;;;15.89;79.12;99870.44;1994175;79;23116;-78
2021/06/07 00:33:55;;;;;;;10.14;7.43;;;;;;;15.88;79.46;99871.31;1994906;81;20260;-78
2021/06/07 00:36:58;;;;;;;9.82;8.45;;;;;;;15.85;79.40;99872.25;1995772;81;20186;-79
2021/06/07 00:40:03;;;;;;;12.31;9.39;;;;;;;15.87;79.54;99872.22;1995864;81;20263;-79
2021/06/07 00:43:06;;;;;;;10.75;9.65;;;;;;;15.87;79.63;99875.69;1994818;81;20181;-79
2021/06/07 00:46:08;;;;;;;9.64;8.60;;;;;;;15.88;78.99;99873.94;1996739;78;20232;-79
2021/06/07 00:49:11;;;;;;;10.68;9.48;;;;;;;15.87;79.11;99875.69;1997520;81;20218;-80
2021/06/07 00:52:14;;;;;;;10.05;8.96;;;;;;;15.85;78.96;99872.25;1995820;81;20238;-79
2021/06/07 00:55:17;;;;;;;10.19;9.19;;;;;;;15.86;79.32;99873.97;1994959;81;20206;-78
2021/06/07 00:58:27;;;;;;;12.00;9.69;;;;;;;15.87;79.50;99873.06;1995484;81;20194;-79
2021/06/07 01:01:30;;;;;;;14.10;10.79;;;;;;;15.88;79.82;99884.41;1994031;78;20751;-79
2021/06/07 01:04:34;;;;;;;12.09;10.77;;;;;;;15.88;79.84;99873.94;1994209;81;20178;-79
2021/06/07 01:07:36;;;;;;;13.82;11.46;;;;;;;15.86;79.50;99870.47;1994801;81;20236;-79
2021/06/07 01:10:40;;;;;;;14.45;11.46;;;;;;;15.86;79.19;99873.97;1995361;81;20190;-79
2021/06/07 01:13:46;;;;;;;13.69;11.00;;;;;;;15.88;78.85;99866.06;1996499;81;20194;-80
2021/06/07 01:16:49;;;;;;;12.01;10.51;;;;;;;15.86;79.05;99863.50;1995956;78;29266;-79
2021/06/07 01:19:55;;;;;;;14.27;11.23;;;;;;;15.88;78.85;99866.06;1996880;81;20226;-80
2021/06/07 01:22:58;;;;;;;14.14;9.94;;;;;;;15.85;79.01;99856.53;1998721;81;20229;-80
2021/06/07 01:26:04;;;;;;;12.82;9.38;;;;;;;15.82;79.28;99853.97;1996755;81;20319;-80
2021/06/07 01:29:07;;;;;;;11.61;9.50;;;;;;;15.80;79.56;99860.09;1995979;81;20244;-79
2021/06/07 01:32:10;;;;;;;9.20;8.27;;;;;;;15.76;79.79;99855.81;1995657;78;23259;-79
2021/06/07 01:35:13;;;;;;;8.89;8.10;;;;;;;15.75;79.86;99854.09;1995656;81;20198;-79
2021/06/07 01:38:17;;;;;;;14.44;12.26;;;;;;;15.71;80.20;99856.78;1996523;81;20178;-79
2021/06/07 01:41:20;;;;;;;9.52;8.54;;;;;;;15.72;80.05;99849.78;1996256;81;20171;-79
2021/06/07 01:44:23;;;;;;;10.64;9.25;;;;;;;15.70;80.55;99848.94;1996229;81;21005;-79
2021/06/07 01:47:26;;;;;;;11.05;9.26;;;;;;;15.69;80.81;99845.47;1995038;78;22264;-79
2021/06/07 01:50:28;;;;;;;10.76;9.69;;;;;;;15.66;80.90;99848.16;1995358;81;20194;-78
2021/06/07 01:53:32;;;;;;;11.63;10.30;;;;;;;15.65;80.98;99850.78;1994851;81;21063;-78
2021/06/07 01:56:35;;;;;;;10.44;9.44;;;;;;;15.65;81.20;99849.03;1993853;81;20200;-79
2021/06/07 01:59:37;;;;;;;11.27;9.70;;;;;;;15.64;81.01;99846.44;1994941;81;21116;-79
2021/06/07 02:02:44;;;;;;;11.50;9.86;;;;;;;15.59;80.98;99841.28;1995185;78;21884;-79
2021/06/07 02:05:52;;;;;;;12.09;10.89;;;;;;;15.58;81.15;99842.13;1997202;81;20229;-79
2021/06/07 02:08:55;;;;;;;16.83;13.52;;;;;;;15.58;80.84;99841.25;1997271;81;20237;-79
2021/06/07 02:11:58;;;;;;;13.60;11.24;;;;;;;15.60;80.60;99842.13;1996592;81;20218;-79
2021/06/07 02:15:00;;;;;;;14.81;12.04;;;;;;;15.60;80.65;99850.84;1993214;81;20212;-79
2021/06/07 02:18:06;;;;;;;14.98;12.44;;;;;;;15.58;80.79;99841.25;1997504;78;24547;-80
2021/06/07 02:21:10;;;;;;;15.61;11.32;;;;;;;15.56;80.76;99851.75;1998340;81;20194;-79
2021/06/07 02:24:13;;;;;;;12.23;10.94;;;;;;;15.55;81.08;99846.56;1998725;81;20191;-80
2021/06/07 02:27:15;;;;;;;13.49;11.25;;;;;;;15.54;81.24;99842.22;1997108;81;20271;-79
2021/06/07 02:30:22;;;;;;;12.85;10.40;;;;;;;15.53;81.30;99843.97;1996881;81;20199;-79
2021/06/07 02:33:25;;;;;;;17.67;14.99;;;;;;;15.50;81.44;99841.41;1996794;81;20171;-79
2021/06/07 02:36:31;;;;;;;13.02;11.43;;;;;;;15.50;81.60;99841.41;1997582;81;20969;-79
2021/06/07 02:39:33;;;;;;;11.40;10.31;;;;;;;15.53;81.71;99837.88;1996910;81;20171;-79
2021/06/07 02:42:38;;;;;;;12.61;9.93;;;;;;;15.51;82.17;99837.03;1997500;81;21230;-79
2021/06/07 02:45:41;;;;;;;14.20;11.70;;;;;;;15.51;82.38;99837.03;1999014;78;22481;-79
2021/06/07 02:48:44;;;;;;;17.73;14.40;;;;;;;15.50;82.40;99841.41;1998925;81;20174;-79
2021/06/07 02:51:47;;;;;;;16.77;13.55;;;;;;;15.51;82.09;99839.66;1997268;81;20186;-80
2021/06/07 02:54:49;;;;;;;13.89;12.48;;;;;;;15.51;81.86;99837.03;1997689;81;20842;-79
2021/06/07 02:57:53;;;;;;;19.91;17.59;;;;;;;15.48;81.88;99844.94;1996291;81;20175;-79
2021/06/07 03:01:00;;;;;;;15.70;13.81;;;;;;;15.45;81.60;99837.16;1995930;78;24274;-79
2021/06/07 03:04:02;;;;;;;14.43;12.14;;;;;;;15.49;81.42;99839.69;1996247;81;20657;-79
2021/06/07 03:07:06;;;;;;;17.66;15.77;;;;;;;15.47;81.63;99838.84;1997993;81;20201;-79
2021/06/07 03:10:09;;;;;;;17.11;13.65;;;;;;;15.45;81.83;99839.78;1997383;81;20175;-79
2021/06/07 03:13:12;;;;;;;14.46;12.98;;;;;;;15.47;81.59;99838.00;1997814;81;20208;-80
2021/06/07 03:16:16;;;;;;;16.54;13.51;;;;;;;15.45;81.96;99835.41;1996074;78;22176;-79
2021/06/07 03:19:18;;;;;;;16.74;14.45;;;;;;;15.43;82.10;99837.16;2000719;81;20784;-80
2021/06/07 03:22:22;;;;;;;15.06;13.56;;;;;;;15.45;82.17;99835.41;1999298;81;20218;-79
2021/06/07 03:25:25;;;;;;;17.30;15.38;;;;;;;15.45;82.14;99834.53;1999275;81;20175;-80
2021/06/07 03:28:28;;;;;;;18.09;14.25;;;;;;;15.44;82.06;99833.69;1999283;81;20178;-80
2021/06/07 03:31:31;;;;;;;16.63;13.63;;;;;;;15.41;82.33;99841.56;1997034;78;57707;-80
2021/06/07 03:34:33;;;;;;;17.27;15.43;;;;;;;15.39;82.31;99840.72;1998161;81;20224;-80
2021/06/07 03:37:37;;;;;;;17.69;15.39;;;;;;;15.45;82.09;99845.00;1997761;81;20308;-80
2021/06/07 03:40:42;;;;;;;18.49;14.56;;;;;;;15.42;82.27;99838.91;1997767;81;20175;-79
2021/06/07 03:43:45;;;;;;;17.66;15.27;;;;;;;15.42;82.42;99841.53;1998500;81;20240;-80
2021/06/07 03:46:48;;;;;;;20.05;15.81;;;;;;;15.42;82.57;99838.03;1997759;78;22623;-80
2021/06/07 03:49:51;;;;;;;17.77;15.31;;;;;;;15.42;82.72;99840.66;1996817;81;20239;-79
2021/06/07 03:52:54;;;;;;;16.66;14.59;;;;;;;15.44;82.92;99833.69;1997644;81;20178;-79
2021/06/07 03:55:57;;;;;;;16.10;14.40;;;;;;;15.46;83.07;99836.25;1997103;81;20314;-79
2021/06/07 03:58:59;;;;;;;15.69;13.95;;;;;;;15.48;83.18;99839.72;1997853;81;20174;-79
2021/06/07 04:02:04;;;;;;;16.63;14.85;;;;;;;15.51;82.85;99837.91;1996152;79;27797;-79
2021/06/07 04:05:08;;;;;;;16.80;14.00;;;;;;;15.52;82.90;99831.78;1997368;81;20242;-79
2021/06/07 04:08:11;;;;;;;18.85;16.25;;;;;;;15.51;83.17;99837.03;1997766;81;20195;-80
2021/06/07 04:11:14;;;;;;;19.89;17.46;;;;;;;15.54;82.81;99839.59;1997714;81;20735;-80
2021/06/07 04:14:17;;;;;;;17.24;15.35;;;;;;;15.57;82.38;99837.78;1997518;81;20230;-79
2021/06/07 04:17:20;;;;;;;17.56;15.68;;;;;;;15.59;82.43;99837.78;1998671;79;21912;-80
2021/06/07 04:20:26;;;;;;;20.02;15.88;;;;;;;15.60;82.83;99827.28;1999053;81;20311;-79
2021/06/07 04:23:29;;;;;;;18.95;15.54;;;;;;;15.62;82.89;99829.91;1998493;81;20200;-80
2021/06/07 04:26:32;;;;;;;19.05;15.46;;;;;;;15.62;82.99;99830.78;2000090;81;20170;-80
2021/06/07 04:29:35;;;;;;;16.66;14.69;;;;;;;15.64;83.13;99828.13;1999371;81;20225;-80
2021/06/07 04:32:38;;;;;;;16.74;14.23;;;;;;;15.64;83.26;99833.34;1997479;78;54895;-79
2021/06/07 04:35:40;;;;;;;19.17;15.88;;;;;;;15.65;83.25;99832.47;1998320;81;20231;-80
2021/06/07 04:38:43;;;;;;;19.70;15.46;;;;;;;15.68;82.96;99833.28;2000985;81;20162;-79
2021/06/07 04:41:46;;;;;;;18.91;15.45;;;;;;;15.71;82.96;99833.22;1997881;81;20182;-80
2021/06/07 04:44:49;;;;;;;19.10;15.52;;;;;;;15.72;82.84;99834.06;1997537;81;20798;-79
2021/06/07 04:47:52;;;;;;;16.48;13.94;;;;;;;15.79;82.88;99834.81;1998334;78;22889;-79
2021/06/07 04:50:54;;;;;;;17.55;14.09;;;;;;;15.83;82.96;99829.50;1998528;81;20244;-80
2021/06/07 04:53:57;;;;;;;17.55;14.23;;;;;;;15.86;83.03;99821.59;1998659;81;20186;-80
2021/06/07 04:57:00;;;;;;;19.00;15.56;;;;;;;15.88;82.93;99827.66;1998231;81;20174;-79
2021/06/07 05:00:03;;;;;;;17.40;15.29;;;;;;;15.93;82.70;99825.81;1998191;81;20573;-79
2021/06/07 05:03:06;;;;;;;17.66;15.63;;;;;;;15.97;82.59;99826.59;1995476;78;22333;-79
2021/06/07 05:06:09;;;;;;;17.96;14.52;;;;;;;16.02;82.64;99823.03;1995450;81;20292;-79
2021/06/07 05:09:11;;;;;;;18.49;14.75;;;;;;;16.08;82.62;99826.41;1994255;81;20365;-79
2021/06/07 05:12:14;;;;;;;18.35;16.26;;;;;;;16.13;82.49;99827.16;1994287;81;20178;-78
2021/06/07 05:15:17;;;;;;;19.86;15.48;;;;;;;16.17;82.21;99827.09;1996037;81;20166;-78
2021/06/07 05:18:20;;;;;;;17.58;15.30;;;;;;;16.25;81.52;99824.31;1994648;81;20256;-79
2021/06/07 05:21:23;;;;;;;17.77;14.54;;;;;;;16.32;81.91;99824.13;1999010;81;20194;-80
2021/06/07 05:24:25;;;;;;;18.27;14.59;;;;;;;16.36;81.93;99822.34;1998155;81;20170;-80
2021/06/07 05:27:28;;;;;;;18.39;15.50;;;;;;;16.41;81.76;99824.84;1999134;81;20267;-79
2021/06/07 05:30:32;;;;;;;19.95;15.45;;;;;;;16.48;81.36;99821.19;1997090;78;21608;-78
2021/06/07 05:33:35;;;;;;;20.65;15.45;;;;;;;16.54;80.86;99824.56;1994504;81;20214;-78
2021/06/07 05:36:38;;;;;;;23.04;14.89;;;;;;;16.60;80.38;99824.44;1994523;81;20162;-78
2021/06/07 05:39:40;;;;;;;18.91;14.96;;;;;;;16.69;80.34;99830.38;1990763;81;20178;-79
2021/06/07 05:42:43;;;;;;;18.71;15.51;;;;;;;16.80;80.08;99833.63;1994228;81;20720;-79
2021/06/07 05:45:46;;;;;;;17.58;15.64;;;;;;;16.87;79.28;99830.84;1993512;78;22301;-78
2021/06/07 05:48:49;;;;;;;18.16;15.75;;;;;;;16.98;79.04;99840.22;1993662;81;20974;-79
2021/06/07 05:51:51;;;;;;;17.89;15.48;;;;;;;17.05;78.82;99832.16;1995899;81;20178;-79
2021/06/07 05:54:54;;;;;;;17.58;15.55;;;;;;;17.12;78.53;99838.16;2095039;70;20296;-79
2021/06/07 05:58:02;;;;;;;17.10;15.38;;;;;;;17.20;78.25;99839.66;2008153;80;20246;-79
2021/06/07 06:01:05;;;;;;;21.42;15.30;;;;;;;17.23;78.18;99841.34;2004346;78;22127;-78
2021/06/07 06:04:12;;;;;;;17.46;15.65;;;;;;;17.28;78.03;99842.13;2004221;80;20311;-78
2021/06/07 06:07:15;;;;;;;19.06;15.27;;;;;;;17.33;76.97;99849.88;2000890;81;20205;-79
2021/06/07 06:10:18;;;;;;;19.50;15.31;;;;;;;17.37;76.50;99844.50;2000521;81;20239;-79
2021/06/07 06:13:21;;;;;;;19.14;15.45;;;;;;;17.41;76.58;99840.91;2000429;81;20178;-79
2021/06/07 06:16:25;;;;;;;17.75;15.52;;;;;;;17.48;76.50;99842.50;1999843;78;22879;-79
2021/06/07 06:19:28;;;;;;;16.24;14.43;;;;;;;17.55;75.63;99847.56;2002651;81;20169;-79
2021/06/07 06:22:30;;;;;;;18.16;15.24;;;;;;;17.62;75.19;99847.41;2007008;81;20170;-80
2021/06/07 06:25:33;;;;;;;17.10;14.94;;;;;;;17.67;74.87;99847.28;2009720;80;20190;-79
2021/06/07 06:28:40;;;;;;;16.63;14.84;;;;;;;17.71;74.81;99848.94;2009604;81;20178;-80
2021/06/07 06:31:42;;;;;;;17.55;14.90;;;;;;;17.73;74.22;99848.00;2010284;78;30197;-80
2021/06/07 06:34:48;;;;;;;17.86;14.52;;;;;;;17.80;74.36;99852.22;2010080;81;20170;-81
2021/06/07 06:37:57;;;;;;;17.75;15.10;;;;;;;17.86;74.42;99848.53;2036058;70;20173;-81
2021/06/07 06:41:00;;;;;;;16.04;14.36;;;;;;;17.88;73.76;99856.38;2011160;81;20246;-82
2021/06/07 06:44:04;;;;;;;19.45;15.04;;;;;;;17.86;73.71;99851.16;2011590;81;20170;-81
2021/06/07 06:47:07;;;;;;;17.56;13.56;;;;;;;17.88;73.84;99853.75;2010912;78;190329;-81
2021/06/07 06:50:12;;;;;;;16.35;13.99;;;;;;;17.91;73.59;99849.28;2010402;81;20288;-81
2021/06/07 06:53:17;;;;;;;16.36;13.93;;;;;;;17.96;73.49;99849.19;2013130;81;20161;-87
2021/06/07 06:56:21;;;;;;;16.88;14.04;;;;;;;18.00;73.59;99851.66;2027892;70;20243;-84
2021/06/07 06:59:24;;;;;;;16.00;13.45;;;;;;;18.11;74.00;99849.59;2019629;80;20177;-84
2021/06/07 07:02:28;;;;;;;15.18;13.57;;;;;;;18.19;73.35;99849.41;2022739;78;140965;-82
2021/06/07 07:05:32;;;;;;;15.57;13.96;;;;;;;18.29;72.99;99861.34;2025707;70;20210;-81
2021/06/07 07:08:36;;;;;;;15.38;13.35;;;;;;;18.33;71.95;99854.25;2017874;80;20177;-80
2021/06/07 07:11:39;;;;;;;15.96;14.30;;;;;;;18.44;72.08;99854.81;2014888;80;20734;-81
2021/06/07 07:14:43;;;;;;;14.00;12.60;;;;;;;18.53;71.48;99848.44;2012505;80;20337;-79
2021/06/07 07:17:46;;;;;;;16.91;12.82;;;;;;;18.66;71.78;99848.03;2015991;78;24560;-82
2021/06/07 07:20:49;;;;;;;13.77;12.34;;;;;;;18.77;71.04;99852.13;2021259;80;20222;-83
2021/06/07 07:23:52;;;;;;;16.13;13.48;;;;;;;18.87;70.42;99851.81;2020695;80;20176;-82
2021/06/07 07:26:56;;;;;;;14.70;11.61;;;;;;;18.93;70.16;99851.59;2018593;80;20248;-80
2021/06/07 07:29:59;;;;;;;12.80;10.21;;;;;;;19.04;70.05;99863.56;2017067;80;20277;-80
2021/06/07 07:33:03;;;;;;;11.19;9.80;;;;;;;19.10;69.07;99858.97;2010598;78;20768;-80
2021/06/07 07:36:11;;;;;;;11.69;9.85;;;;;;;19.17;68.97;99859.63;2010903;81;20203;-81
2021/06/07 07:39:14;;;;;;;9.70;8.36;;;;;;;19.25;68.89;99858.47;2012510;81;20178;-79
2021/06/07 07:42:17;;;;;;;9.31;8.48;;;;;;;19.39;68.69;99859.78;2012205;81;20190;-80
2021/06/07 07:45:21;;;;;;;8.95;8.05;;;;;;;19.50;67.96;99865.56;2008269;77;21880;-80
2021/06/07 07:48:24;;;;;;;28.33;8.82;;;;;;;19.66;68.37;99861.53;2020340;80;20237;-83
2021/06/07 07:51:26;;;;;;;10.89;8.05;;;;;;;19.78;67.54;99862.91;2021679;80;20177;-79
2021/06/07 07:54:31;;;;;;;8.31;7.49;;;;;;;19.87;66.66;99865.22;2019309;80;20169;-83
2021/06/07 07:57:34;;;;;;;6.82;6.25;;;;;;;19.95;66.57;99860.53;2020854;80;20261;-83
2021/06/07 08:00:40;;;;;;;5.39;4.99;;;;;;;20.06;66.44;99866.28;2022604;78;21171;-82
2021/06/07 08:03:43;;;;;;;5.03;4.38;;;;;;;20.06;65.46;99865.41;2022254;80;20153;-80
2021/06/07 08:06:46;;;;;;;4.91;3.59;;;;;;;20.09;65.39;99868.81;2022712;80;20243;-81
2021/06/07 08:09:49;;;;;;;3.46;3.14;;;;;;;20.10;65.58;99869.66;2020896;80;20177;-80
2021/06/07 08:12:52;;;;;;;2.66;2.46;;;;;;;20.04;65.01;99873.38;2021014;80;20177;-80
2021/06/07 08:15:55;;;;;;;2.42;2.22;;;;;;;20.01;65.42;99870.88;2016222;80;20290;-80
2021/06/07 08:18:58;;;;;;;2.29;2.09;;;;;;;19.97;64.26;99878.94;2017041;80;20177;-80
2021/06/07 08:22:01;;;;;;;4.07;2.10;;;;;;;19.91;64.69;99869.44;2017032;80;20309;-80
2021/06/07 08:25:05;;;;;;;3.33;2.40;;;;;;;19.90;64.63;99871.22;2016779;80;20279;-80
2021/06/07 08:28:08;;;;;;;2.20;2.10;;;;;;;19.98;64.72;99862.22;2021751;80;20165;-80
2021/06/07 08:31:10;;;;;;;2.06;1.73;;;;;;;20.09;64.32;99868.81;2016526;80;20201;-81
2021/06/07 08:34:13;;;;;;;2.13;1.90;;;;;;;20.25;65.11;99857.72;2018742;80;20221;-81
2021/06/07 08:37:16;;;;;;;2.22;1.94;;;;;;;20.33;63.84;99864.44;2019709;80;20249;-81
2021/06/07 08:40:19;;;;;;;2.41;1.99;;;;;;;20.35;63.09;99864.38;2017144;80;20159;-81
2021/06/07 08:43:23;;;;;;;2.84;1.75;;;;;;;20.31;63.01;99863.63;2018933;80;20177;-81
2021/06/07 08:46:26;;;;;;;1.63;1.52;;;;;;;20.28;62.90;99862.88;2016995;80;20181;-81
2021/06/07 08:49:29;;;;;;;1.61;1.50;;;;;;;20.15;63.23;99858.06;2016305;80;20202;-80
2021/06/07 08:52:31;;;;;;;2.42;1.73;;;;;;;20.20;63.32;99857.88;2017846;80;20181;-80
2021/06/07 08:55:44;;;;;;;2.79;1.79;;;;;;;20.20;64.31;99857.88;2016777;80;20197;-81
2021/06/07 08:59:19;;;;;;;3.06;1.44;;;;;;;20.26;63.77;99869.97;2016290;80;20305;-80
2021/06/07 09:02:35;;;;;;;3.36;1.60;;;;;;;20.29;63.13;99870.75;2018823;79;23777;-79
2021/06/07 09:05:45;;;;;;;2.60;1.50;;;;;;;20.18;61.35;99865.00;2011041;80;20177;-79
2021/06/07 09:09:06;;;;;;;1.64;1.54;;;;;;;20.20;62.82;99865.78;2011670;80;20567;-78
2021/06/07 09:12:20;;;;;;;2.24;1.50;;;;;;;20.25;62.78;99865.63;2020934;80;20177;-83
2021/06/07 09:15:38;;;;;;;2.65;1.81;;;;;;;20.32;62.45;99875.91;2023749;78;21712;-83
2021/06/07 09:18:46;;;;;;;2.15;1.66;;;;;;;20.40;61.32;99873.84;2018827;80;20278;-81
2021/06/07 09:28:48;;;;;;;1.60;1.50;;;;;;;20.68;60.92;99871.06;2026603;70;20218;-82
2021/06/07 09:31:59;;;;;;;2.50;1.70;;;;;;;20.82;60.28;99862.59;2013897;81;20203;-82
2021/06/07 09:35:09;;;;;;;2.08;1.79;;;;;;;20.93;60.44;99860.41;2013580;81;20227;-83
2021/06/07 09:38:12;;;;;;;2.06;1.79;;;;;;;21.00;60.21;99866.31;2014615;81;20174;-82
2021/06/07 09:41:23;;;;;;;4.72;2.09;;;;;;;21.01;60.43;99868.91;2016427;81;20194;-83
2021/06/07 09:44:39;;;;;;;2.11;2.01;;;;;;;20.89;60.63;99871.16;2013410;81;20197;-81
2021/06/07 09:47:42;;;;;;;2.49;2.29;;;;;;;20.91;59.68;99878.09;2010967;78;220215;-81
2021/06/07 09:51:01;;;;;;;2.63;2.00;;;;;;;20.91;59.41;99870.19;2014349;81;20605;-81
2021/06/07 09:54:05;;;;;;;3.06;2.21;;;;;;;20.93;60.05;99873.63;2014632;81;20198;-81
2021/06/07 09:57:18;;;;;;;2.75;2.25;;;;;;;20.99;59.90;99873.38;2012370;81;20173;-78
2021/06/07 10:00:42;;;;;;;3.08;2.25;;;;;;;21.05;59.96;99872.28;2011278;78;21317;-81
2021/06/07 10:03:57;;;;;;;3.76;2.14;;;;;;;21.06;58.74;99879.28;2013960;81;20301;-82
2021/06/07 10:07:08;;;;;;;2.59;2.39;;;;;;;21.07;58.53;99873.94;2013779;81;20269;-80
2021/06/07 10:10:11;;;;;;;2.63;1.60;;;;;;;20.99;58.87;99878.66;2014394;81;20267;-82
2021/06/07 10:13:21;;;;;;;2.04;1.94;;;;;;;21.00;58.65;99872.44;2013835;81;20335;-81
2021/06/07 10:16:25;;;;;;;1.76;1.66;;;;;;;20.98;58.24;99874.28;2012482;81;20207;-81
2021/06/07 10:22:47;;;;;;;2.41;1.84;;;;;;;21.09;58.11;99865.94;2006600;81;20306;-79
2021/06/07 10:25:58;;;;;;;1.98;1.65;;;;;;;21.18;57.67;99867.34;2006621;81;20245;-79
2021/06/07 10:29:07;;;;;;;2.97;1.84;;;;;;;21.25;57.54;99866.25;2012656;80;20224;-79
2021/06/07 10:32:24;;;;;;;1.71;1.61;;;;;;;21.39;58.37;99869.19;2011465;78;23289;-79
2021/06/07 10:35:31;;;;;;;1.90;1.80;;;;;;;21.48;57.14;99857.34;2010108;81;20169;-79
2021/06/07 10:38:42;;;;;;;3.14;1.64;;;;;;;21.56;57.04;99864.06;2009650;81;20209;-79
2021/06/07 10:41:56;;;;;;;2.19;1.54;;;;;;;21.75;56.60;99856.22;2010456;81;20185;-79
2021/06/07 10:45:06;;;;;;;2.81;1.63;;;;;;;21.97;56.85;99853.50;2012630;81;20263;-79
2021/06/07 10:48:32;;;;;;;1.67;1.58;;;;;;;22.23;56.78;99862.94;2010253;78;21430;-80
2021/06/07 10:52:08;;;;;;;1.51;1.41;;;;;;;22.39;55.95;99865.75;2006861;81;20794;-77
2021/06/07 10:55:24;;;;;;;4.06;1.50;;;;;;;22.52;54.61;99864.28;2002639;81;20558;-77
2021/06/07 10:58:26;;;;;;;1.95;1.36;;;;;;;22.56;54.52;99855.28;2002450;81;20224;-77
2021/06/07 11:01:59;;;;;;;1.50;1.40;;;;;;;22.65;55.01;99856.66;2001736;81;20255;-78
2021/06/07 11:05:20;;;;;;;1.36;1.26;;;;;;;22.62;54.16;99849.69;1999888;81;20243;-77
2021/06/07 11:08:32;;;;;;;1.31;1.21;;;;;;;22.72;54.78;99855.41;2003782;81;20228;-77
2021/06/07 11:11:42;;;;;;;1.56;1.46;;;;;;;22.64;53.36;99861.09;2001010;81;20190;-78
2021/06/07 11:15:17;;;;;;;1.59;1.46;;;;;;;22.59;52.89;99857.78;2004562;81;20201;-76
2021/06/07 11:18:32;;;;;;;2.56;1.50;;;;;;;22.58;54.29;99851.63;2006521;78;52252;-77
2021/06/07 11:22:12;;;;;;;3.21;1.40;;;;;;;22.59;54.08;99853.34;2012366;81;20227;-80
2021/06/07 11:25:18;;;;;;;2.24;1.29;;;;;;;22.45;53.49;99857.56;2007279;81;20186;-79
2021/06/07 11:28:40;;;;;;;2.17;1.29;;;;;;;22.31;54.45;99851.09;2014023;80;20206;-81
2021/06/07 11:32:10;;;;;;;1.67;1.45;;;;;;;22.27;54.82;99851.31;2008486;78;20209;-80
2021/06/07 11:35:41;;;;;;;1.51;1.40;;;;;;;22.21;53.72;99843.63;2018674;80;20216;-82
2021/06/07 11:39:00;;;;;;;2.54;1.60;;;;;;;22.15;54.36;99851.84;2017632;80;20181;-81
2021/06/07 11:42:41;;;;;;;2.10;1.11;;;;;;;22.11;54.75;99850.28;2032118;70;20554;-79
2021/06/07 11:45:51;;;;;;;1.70;1.60;;;;;;;22.13;55.68;99845.78;2010535;81;20186;-81
2021/06/07 11:49:15;;;;;;;1.49;1.39;;;;;;;22.13;55.18;99843.13;2006613;81;20258;-82
2021/06/07 11:52:33;;;;;;;3.75;1.70;;;;;;;22.14;55.46;99840.41;2006169;81;20227;-79
2021/06/07 11:55:55;;;;;;;4.53;1.52;;;;;;;22.10;55.12;99838.84;2003601;81;20194;-79
2021/06/07 11:59:06;;;;;;;4.75;1.45;;;;;;;22.18;56.06;99833.19;2005930;81;20204;-79
2021/06/07 12:02:15;;;;;;;1.49;1.39;;;;;;;22.21;56.14;99841.00;2004452;78;22026;-79
2021/06/07 12:05:24;;;;;;;1.83;1.45;;;;;;;22.23;56.12;99840.00;2004850;81;20174;-80
2021/06/07 12:08:27;;;;;;;1.45;1.35;;;;;;;22.22;56.20;99838.28;2006352;81;20210;-80
2021/06/07 12:11:37;;;;;;;1.65;1.30;;;;;;;22.18;56.17;99842.00;2005604;81;20207;-80
2021/06/07 12:14:41;;;;;;;2.05;1.50;;;;;;;22.14;56.67;99840.41;2005036;81;20182;-79
2021/06/07 12:17:59;;;;;;;1.69;1.30;;;;;;;22.15;56.63;99838.63;2005614;81;23353;-80
2021/06/07 12:21:07;;;;;;;2.86;1.55;;;;;;;;;;2005327;81;20313;-80
2021/06/07 12:24:19;;;;;;;2.41;1.59;;;;;;;22.12;56.62;99831.69;2008344;81;20197;-79
2021/06/07 12:31:01;;;;;;;;;;;;;;;22.20;56.41;99834.00;2005337;81;20260;-81
2021/06/07 12:34:08;;;;;;;2.16;1.41;;;;;;;22.22;55.99;99835.63;2006745;81;20215;-80
2021/06/07 12:37:47;;;;;;;2.08;1.70;;;;;;;22.20;55.45;99840.13;2006753;81;20312;-79
2021/06/07 12:40:59;;;;;;;2.71;1.67;;;;;;;22.23;56.85;99833.84;2006695;80;20938;-79
2021/06/07 12:44:14;;;;;;;1.50;1.40;;;;;;;22.26;55.36;99833.69;2005230;81;20332;-78
2021/06/07 12:47:24;;;;;;;1.74;1.46;;;;;;;22.31;55.31;99835.22;2005972;78;20490;-81
2021/06/07 12:50:33;;;;;;;1.26;1.25;;;;;;;22.42;54.71;99825.94;2005671;81;20346;-80
2021/06/07 12:53:39;;;;;;;2.06;1.29;;;;;;;22.59;54.52;99826.88;2005029;81;20213;-78
2021/06/07 12:56:51;;;;;;;1.88;1.41;;;;;;;22.73;53.30;99828.00;2001608;81;20207;-80
2021/06/07 12:59:53;;;;;;;3.01;1.76;;;;;;;22.87;52.25;99825.59;2000669;81;20276;-80
2021/06/07 13:03:16;;;;;;;3.91;1.30;;;;;;;22.99;52.44;99821.53;1996075;79;20443;-79
2021/06/07 13:06:20;;;;;;;2.40;1.20;;;;;;;23.16;52.36;99824.19;1996867;81;20745;-79
2021/06/07 13:09:36;;;;;;;1.34;1.24;;;;;;;23.38;51.08;99819.56;1997231;81;20622;-80
2021/06/07 13:12:39;;;;;;;1.71;1.30;;;;;;;23.63;51.07;99826.28;1999546;81;20697;-80
2021/06/07 13:16:04;;;;;;;1.44;1.06;;;;;;;23.87;50.79;99821.50;1994614;78;21209;-79
2021/06/07 13:19:09;;;;;;;1.51;1.10;;;;;;;24.18;49.89;99824.25;1994570;81;20195;-79
2021/06/07 13:22:20;;;;;;;2.88;1.20;;;;;;;24.42;49.02;99814.16;2000166;81;20188;-81
2021/06/07 13:25:28;;;;;;;2.34;1.11;;;;;;;24.78;48.23;99819.25;2000954;81;20749;-80
2021/06/07 13:28:37;;;;;;;1.26;1.02;;;;;;;24.90;46.76;99812.38;2001275;81;20177;-81
2021/06/07 13:32:00;;;;;;;2.95;1.04;;;;;;;25.14;47.31;99816.34;2002845;81;22969;-79
2021/06/07 13:35:12;;;;;;;3.92;1.61;;;;;;;25.27;46.43;99808.50;2004386;81;20139;-82
2021/06/07 13:41:44;;;;;;;1.35;0.95;;;;;;;25.49;46.45;99808.94;2146028;70;20496;-82
2021/06/07 13:44:56;;;;;;;2.20;1.00;;;;;;;25.48;46.65;99809.88;2012797;81;20242;-83
2021/06/07 13:48:11;;;;;;;1.19;1.09;;;;;;;25.38;45.95;99802.56;2009388;78;42685;-81
2021/06/07 13:54:55;;;;;;;1.44;1.08;;;;;;;25.19;47.12;99808.94;2204555;70;20134;-84
2021/06/07 14:01:34;;;;;;;1.04;0.93;;;;;;;24.97;47.88;99809.28;2114205;70;46437;-81
2021/06/07 14:04:44;;;;;;;2.04;1.14;;;;;;;24.76;48.33;99814.94;2016474;81;20177;-80
2021/06/07 14:08:00;;;;;;;1.98;1.30;;;;;;;24.64;48.67;99808.53;2126444;70;20223;-84
2021/06/07 14:11:27;;;;;;;1.86;1.00;;;;;;;24.55;49.07;99811.69;2067369;70;20863;-77
2021/06/07 14:14:37;;;;;;;1.95;1.29;;;;;;;24.36;49.64;99814.50;1991178;81;20324;-77
2021/06/07 14:17:40;;;;;;;1.52;1.25;;;;;;;24.28;50.61;99827.28;1991029;78;22216;-77
2021/06/07 14:20:50;;;;;;;2.75;1.61;;;;;;;24.07;50.11;99818.69;1993240;81;20186;-76
2021/06/07 14:27:21;;;;;;;;;;;;;;;23.98;50.49;99816.50;1995986;81;20196;-77
2021/06/07 14:30:23;;;;;;;0.96;0.96;;;;;;;23.90;49.92;99805.44;2099001;70;20128;-80
2021/06/07 14:33:26;;;;;;;1.56;1.10;;;;;;;23.83;50.09;99807.56;2092595;70;23776;-79
2021/06/07 14:36:29;;;;;;;2.36;1.38;;;;;;;23.81;50.92;99807.63;2047713;70;20287;-76
2021/06/07 14:39:32;;;;;;;1.89;1.11;;;;;;;23.74;49.79;99806.25;2001101;81;20178;-76
2021/06/07 14:42:34;;;;;;;2.10;1.00;;;;;;;23.62;50.10;99806.00;2000576;81;20205;-77
2021/06/07 14:45:41;;;;;;;1.80;1.26;;;;;;;23.55;50.79;99800.16;2000525;81;20193;-76
2021/06/07 14:48:45;;;;;;;1.42;0.95;;;;;;;23.54;51.44;99803.72;2001177;81;20174;-76
2021/06/07 14:51:47;;;;;;;2.83;1.21;;;;;;;23.50;51.40;99800.34;2001939;81;20185;-76
2021/06/07 14:54:50;;;;;;;0.98;0.93;;;;;;;23.41;51.79;99800.84;2000716;81;20282;-76
2021/06/07 14:57:53;;;;;;;1.27;1.17;;;;;;;23.37;51.77;99801.94;2001646;81;20222;-76